AirNav   Free Bose QuietComfort 20
 
 1275 users online  

UT87 Jordan Valley Hospital Heliport
West Jordan, Utah, USA

GOING TO WEST JORDAN?


FAA INFORMATION EFFECTIVE 05 DECEMBER 2019

Location

FAA Identifier: UT87
Lat/Long: 40-35-26.1000N 111-58-33.3200W
40-35.435000N 111-58.555333W
40.5905833,-111.9759222
(estimated)
Elevation: 4590 ft. / 1399 m (estimated)
Time zone: UTC -7 (UTC -6 during Daylight Saving Time)
Zip code: 84088

Heliport Operations

Heliport use: Private use, MEDICAL USE.
Activation date: 02/2007
Control tower: no
ARTCC: SALT LAKE CITY CENTER
FSS: CEDAR CITY FLIGHT SERVICE STATION
Attendance: CONTINUOUS
Wind indicator: yes
Segmented circle: no

Heliport Communications

WX AWOS-3 at U42 (1.9 nm NW): 134.425 (801-562-0271)
WX ASOS at SLC (12 nm N): PHONE 801-328-3567
WX AWOS-3 at TVY (17 nm W): 119.725 (435-882-6648)

Nearby radio navigation aids

VOR radial/distance  VOR name  Freq  Var
TCHr163/15.6WASATCH VORTAC116.8016E
FFUr339/19.0FAIRFIELD VORTAC116.6016E
PVUr318/25.4PROVO VOR/DME108.4015E
OGDr158/38.4OGDEN VORTAC115.7014E

Heliport Services

Runway Information

Helipad H1

Dimensions: 60 x 60 ft. / 18 x 18 m
Surface: concrete
Runway edge lights: PERI
Latitude: 40-35.435000N
Longitude: 111-58.555333W
Elevation: 4590.0 ft.
Traffic pattern: leftleft

Heliport Ownership and Management from official FAA records

Ownership: Privately-owned
Owner: JORDAN VALLEY HOSPITAL L.P.
3580 WEST 9000 SOUTH
WEST JORDAN, UT 84088
Phone 801-561-8888
Manager: KEN CASPER
3580 WEST 9000 SOUTH
WEST JORDAN, UT 84088
Phone 801-562-4213

Additional Remarks

A52-H1 30 FT MKD PLINE 280 FT N, 15 FT LGT POLE 100 FT N, 30 FT LGT POLE 100 FT SSW, 55 FT BLDG 16 FT E, & 160 FT BLDG 45 FT S.
FOR CD CTC SALT LAKE CITY APCH AT 801-325-9670.

Instrument Procedures

There are no published instrument procedures at UT87.

Some nearby airports with instrument procedures:

U42 - South Valley Regional Airport (2 nm NW)
KSLC - Salt Lake City International Airport (12 nm N)
KTVY - Bolinder Field-Tooele Valley Airport (17 nm W)
KPVU - Provo Municipal Airport (25 nm SE)
KHCR - Heber Valley Airport (26 nm E)
 
Loc | Ops | Rwys | IFR | FBO | Links
Com | Nav | Svcs | Stats | Notes
Area around UT87 (Jordan Valley Hospital Heliport)
 
Road maps at: MapQuest Bing Google
 
Aerial photo
No photo
 
Sectional chart

 
Airport distance calculator
Flying to Jordan Valley Hospital Heliport? Find the distance to fly.

From to UT87

Sunrise and sunset
Times for 11-Dec-2019
 Local
(UTC-7)
 Zulu
(UTC)
Morning civil twilight07:1214:12
Sunrise07:4314:43
Sunset17:0024:00
Evening civil twilight17:3100:31

Current date and time
Zulu (UTC)  11-Dec-2019 20:59:41
Local (UTC-7)  11-Dec-2019 13:59:41
 
METAR
KU42 
2nm NW 
112035Z AUTO 20004KT 10SM OVC085 05/M01 A3016 RMK AO1 T00501014
KSLC 
12nm N 
112054Z 02003KT 10SM BKN085 BKN110 06/M04 A3017 RMK AO2 SLP213 T00561044 55018
KTVY 
17nm W 
112055Z AUTO 00000KT 10SM OVC080 01/M01 A3019 RMK AO2
TAF
KSLC 
12nm N 
111720Z 1118/1224 28005KT P6SM SCT050 BKN100 FM120300 15006KT P6SM SCT050 OVC100 FM121300 16010KT 5SM BR VCSH BKN030 FM121600 15010KT 4SM -SHSN BKN015 OVC020
NOTAMs
Click for the latest NOTAMs
NOTAMs are issued by the DoD/FAA and will open in a separate window not controlled by AirNav.

 

 
 

Would you like to see your business listed on this page?

 If your business provides an interesting product or service to pilots, flight crews, aircraft, or users of the Jordan Valley Hospital Heliport, you should consider listing it here.  To start the listing process, click on the button below
 
Add a business
 

Other Pages about Jordan Valley Hospital Heliport

Update a link
 
Copyright © AirNav, LLC. All rights reserved. Privacy Policy  Contact